createdAt,value
2023-03-31T00:02:02.224Z,95113.88
2023-03-31T00:04:33.824Z,95115.47
2023-03-31T00:07:05.973Z,95112.06
2023-03-31T00:09:37.434Z,95107.53
2023-03-31T00:12:09.897Z,95095.06
2023-03-31T00:14:41.891Z,95096.59
2023-03-31T00:17:13.314Z,95092.03
2023-03-31T00:19:44.716Z,95086.34
2023-03-31T00:22:18.931Z,95082.56
2023-03-31T00:24:50.292Z,95073.09
2023-03-31T00:27:21.747Z,95077.34
2023-03-31T00:29:53.136Z,95074.69
2023-03-31T00:32:24.609Z,95076.66
2023-03-31T00:34:56.068Z,95073.28
2023-03-31T00:37:27.836Z,95066.81
2023-03-31T00:39:59.765Z,95062.31
2023-03-31T00:42:31.182Z,95048.66
2023-03-31T00:45:14.608Z,95035.00
2023-03-31T00:47:48.864Z,95033.91
2023-03-31T00:50:27.035Z,95027.09
2023-03-31T00:53:01.224Z,95037.00
2023-03-31T00:55:36.303Z,95031.66
2023-03-31T00:58:09.236Z,95021.81
2023-03-31T01:00:41.462Z,95024.09
2023-03-31T01:03:13.323Z,95024.09
2023-03-31T01:05:47.869Z,95014.22
2023-03-31T01:08:24.552Z,95011.22
2023-03-31T01:10:58.091Z,95010.84
2023-03-31T01:13:30.141Z,95000.59
2023-03-31T01:16:02.184Z,94997.16
2023-03-31T01:18:36.732Z,94996.78
2023-03-31T01:21:10.889Z,94990.31
2023-03-31T01:23:54.392Z,94983.81
2023-03-31T01:26:38.745Z,94984.84
2023-03-31T01:29:28.806Z,94974.91
2023-03-31T01:32:03.516Z,94964.22
2023-03-31T01:34:53.582Z,94955.44
2023-03-31T01:37:30.692Z,94955.72
2023-03-31T01:40:09.989Z,94958.38
2023-03-31T01:42:47.206Z,94953.47
2023-03-31T01:45:36.150Z,94957.31
2023-03-31T01:48:13.091Z,94951.25
2023-03-31T01:50:54.037Z,94951.66
2023-03-31T01:53:31.358Z,94939.13
2023-03-31T01:56:02.801Z,94936.13
2023-03-31T01:58:39.455Z,94934.56
2023-03-31T02:01:37.412Z,94926.94
2023-03-31T02:04:18.463Z,94920.47
2023-03-31T02:06:56.293Z,94914.78
2023-03-31T02:09:31.298Z,94912.94
2023-03-31T02:12:06.027Z,94914.41
2023-03-31T02:14:39.602Z,94911.38
2023-03-31T02:17:18.109Z,94915.56
2023-03-31T02:19:51.796Z,94905.72
2023-03-31T02:22:24.232Z,94893.97
2023-03-31T02:24:56.392Z,94896.25
2023-03-31T02:27:37.505Z,94895.13
2023-03-31T02:30:09.897Z,94898.59
2023-03-31T02:32:42.680Z,94903.16
2023-03-31T02:35:19.019Z,94909.63
2023-03-31T02:37:50.742Z,94905.47
2023-03-31T02:40:22.802Z,94909.69
2023-03-31T02:42:54.397Z,94921.41
2023-03-31T02:45:34.878Z,94922.59
2023-03-31T02:48:08.050Z,94916.91
2023-03-31T02:51:07.462Z,94905.88
2023-03-31T02:53:57.752Z,94902.09
2023-03-31T02:56:48.161Z,94899.44
2023-03-31T02:59:34.570Z,94893.75
2023-03-31T03:02:24.758Z,94886.59
2023-03-31T03:04:59.193Z,94886.59
2023-03-31T03:07:54.892Z,94890.75
2023-03-31T03:10:41.935Z,94887.34
2023-03-31T03:13:19.637Z,94881.66
2023-03-31T03:15:55.297Z,94893.81
2023-03-31T03:18:26.734Z,94904.44
2023-03-31T03:20:58.062Z,94903.25
2023-03-31T03:23:29.483Z,94902.91
2023-03-31T03:26:01.131Z,94897.59
2023-03-31T03:28:32.456Z,94915.09
2023-03-31T03:31:03.854Z,94906.72
2023-03-31T03:33:35.493Z,94920.78
2023-03-31T03:36:07.337Z,94932.13
2023-03-31T03:38:38.834Z,94926.84
2023-03-31T03:41:10.364Z,94932.41
2023-03-31T03:43:41.784Z,94918.31
2023-03-31T03:46:13.260Z,94918.59
2023-03-31T03:48:44.684Z,94917.84
2023-03-31T03:51:16.225Z,94895.84
2023-03-31T03:53:47.790Z,94889.03
2023-03-31T03:56:19.174Z,94882.22
2023-03-31T03:58:50.905Z,94874.66
2023-03-31T04:01:22.642Z,94866.31
2023-03-31T04:03:54.073Z,94862.50
2023-03-31T04:06:25.385Z,94858.34
2023-03-31T04:08:56.829Z,94862.53
2023-03-31T04:11:28.266Z,94856.44
2023-03-31T04:13:59.644Z,94850.41
2023-03-31T04:16:32.412Z,94839.78
2023-03-31T04:19:04.907Z,94834.06
2023-03-31T04:21:36.296Z,94828.34
2023-03-31T04:24:07.746Z,94823.44
2023-03-31T04:26:42.786Z,94812.38
2023-03-31T04:29:16.435Z,94802.50
2023-03-31T04:31:48.008Z,94796.41
2023-03-31T04:34:22.159Z,94786.47
2023-03-31T04:36:56.184Z,94778.50
2023-03-31T04:39:30.693Z,94780.78
2023-03-31T04:42:02.273Z,94792.22
2023-03-31T04:44:33.704Z,94790.66
2023-03-31T04:47:06.915Z,94785.38
2023-03-31T04:49:38.294Z,94785.41
2023-03-31T04:52:09.613Z,94750.03
2023-03-31T04:54:43.398Z,94721.84
2023-03-31T04:57:14.775Z,94704.75
2023-03-31T04:59:46.706Z,94692.94
2023-03-31T05:02:25.052Z,94681.09
2023-03-31T05:04:56.937Z,94687.53
2023-03-31T05:07:28.308Z,94695.16
2023-03-31T05:09:59.705Z,94679.53
2023-03-31T05:12:34.246Z,94662.06
2023-03-31T05:15:06.098Z,94659.41
2023-03-31T05:17:38.094Z,94634.72
2023-03-31T05:20:09.926Z,94633.22
2023-03-31T05:22:43.673Z,94631.28
2023-03-31T05:25:18.640Z,94620.31
2023-03-31T05:27:51.053Z,94629.38
2023-03-31T05:30:22.676Z,94617.66
2023-03-31T05:32:54.096Z,94611.97
2023-03-31T05:35:25.954Z,94594.06
2023-03-31T05:37:57.348Z,94587.66
2023-03-31T05:40:28.725Z,94587.66
2023-03-31T05:43:00.032Z,94569.81
2023-03-31T05:45:31.396Z,94551.22
2023-03-31T05:48:03.504Z,94550.47
2023-03-31T05:50:34.895Z,94549.72
2023-03-31T05:53:06.239Z,94546.72
2023-03-31T05:55:37.649Z,94534.59
2023-03-31T05:58:09.108Z,94524.72
2023-03-31T06:00:40.472Z,94523.97
2023-03-31T06:03:11.972Z,94517.56
2023-03-31T06:05:47.516Z,94503.13
2023-03-31T06:08:18.836Z,94496.69
2023-03-31T06:10:50.900Z,94492.13
2023-03-31T06:13:22.276Z,94474.25
2023-03-31T06:15:54.914Z,94473.88
2023-03-31T06:18:29.972Z,94456.44
2023-03-31T06:21:01.430Z,94457.19
2023-03-31T06:23:33.230Z,94449.22
2023-03-31T06:26:07.106Z,94451.09
2023-03-31T06:28:38.649Z,94438.97
2023-03-31T06:31:12.652Z,94448.44
2023-03-31T06:33:44.468Z,94442.38
2023-03-31T06:36:17.074Z,94437.81
2023-03-31T06:38:49.220Z,94433.63
2023-03-31T06:41:22.495Z,94431.75
2023-03-31T06:43:53.961Z,94427.91
2023-03-31T06:46:25.394Z,94421.06
2023-03-31T06:48:56.765Z,94417.28
2023-03-31T06:51:29.324Z,94426.41
2023-03-31T06:54:01.936Z,94432.09
2023-03-31T06:56:33.311Z,94443.50
2023-03-31T06:59:04.660Z,94456.03
2023-03-31T07:01:37.554Z,94484.56
2023-03-31T07:04:09.186Z,94489.13
2023-03-31T07:06:40.583Z,94540.44
2023-03-31T07:09:11.923Z,94550.22
2023-03-31T07:11:43.290Z,94544.94
2023-03-31T07:14:14.717Z,94574.13
2023-03-31T07:16:46.189Z,94536.13
2023-03-31T07:19:17.772Z,94538.78
2023-03-31T07:21:49.157Z,94557.41
2023-03-31T07:24:20.665Z,94562.34
2023-03-31T07:26:52.138Z,94589.31
2023-03-31T07:29:23.741Z,94568.06
2023-03-31T07:31:55.127Z,94567.72
2023-03-31T07:34:27.208Z,94554.06
2023-03-31T07:36:58.567Z,94533.53
2023-03-31T07:39:30.380Z,94514.56
2023-03-31T07:42:02.017Z,94508.50
2023-03-31T07:44:34.352Z,94488.38
2023-03-31T07:47:06.217Z,94497.47
2023-03-31T07:49:38.061Z,94504.34
2023-03-31T07:52:09.396Z,94480.38
2023-03-31T07:54:40.778Z,94472.03
2023-03-31T07:57:12.792Z,94457.94
2023-03-31T07:59:44.226Z,94445.38
2023-03-31T08:02:16.847Z,94426.34
2023-03-31T08:04:48.242Z,94419.47
2023-03-31T08:07:22.006Z,94413.31
2023-03-31T08:09:53.389Z,94412.91
2023-03-31T08:12:24.964Z,94419.41
2023-03-31T08:14:56.475Z,94424.72
2023-03-31T08:17:28.189Z,94425.47
2023-03-31T08:20:03.702Z,94403.03
2023-03-31T08:22:39.558Z,94399.25
2023-03-31T08:25:11.406Z,94417.50
2023-03-31T08:27:42.754Z,94425.13
2023-03-31T08:30:14.428Z,94414.03
2023-03-31T08:32:46.434Z,94387.78
2023-03-31T08:35:17.888Z,94406.06
2023-03-31T08:37:49.317Z,94406.06
2023-03-31T08:40:22.909Z,94428.50
2023-03-31T08:43:00.764Z,94433.09
2023-03-31T08:45:34.436Z,94456.72
2023-03-31T08:48:15.380Z,94475.03
2023-03-31T08:50:49.580Z,94475.00
2023-03-31T08:53:27.342Z,94495.53
2023-03-31T08:55:59.243Z,94511.13
2023-03-31T08:58:37.049Z,94500.81
2023-03-31T09:01:27.659Z,94500.84
2023-03-31T09:04:06.499Z,94492.06
2023-03-31T09:06:59.364Z,94492.78
2023-03-31T09:09:49.425Z,94483.25
2023-03-31T09:12:23.441Z,94469.91
2023-03-31T09:14:59.755Z,94464.19
2023-03-31T09:17:33.605Z,94457.59
2023-03-31T09:20:09.284Z,94457.16
2023-03-31T09:22:44.086Z,94446.41
2023-03-31T09:25:42.392Z,94435.56
2023-03-31T09:28:29.415Z,94430.09
2023-03-31T09:31:03.327Z,94422.97
2023-03-31T09:33:39.929Z,94425.09
2023-03-31T09:36:15.121Z,94415.09
2023-03-31T09:38:47.216Z,94406.53
2023-03-31T09:41:19.116Z,94392.06
2023-03-31T09:43:51.396Z,94407.38
2023-03-31T09:46:34.737Z,94404.94
2023-03-31T09:49:10.772Z,94404.28
2023-03-31T09:51:46.125Z,94392.78
2023-03-31T09:54:24.202Z,94386.59
2023-03-31T09:56:55.876Z,94395.25
2023-03-31T09:59:31.473Z,94394.81
2023-03-31T10:02:21.503Z,94394.22
2023-03-31T10:04:52.843Z,94371.16
2023-03-31T10:07:25.096Z,94364.25
2023-03-31T10:09:57.340Z,94355.72
2023-03-31T10:12:30.436Z,94359.63
2023-03-31T10:15:22.045Z,94352.72
2023-03-31T10:17:55.494Z,94343.53
2023-03-31T10:20:47.384Z,94345.66
2023-03-31T10:23:25.496Z,94344.53
2023-03-31T10:25:58.122Z,94331.16
2023-03-31T10:28:32.243Z,94340.22
2023-03-31T10:31:05.095Z,94328.19
2023-03-31T10:33:41.804Z,94306.19
2023-03-31T10:36:29.184Z,94307.97
2023-03-31T10:39:05.537Z,94304.84
2023-03-31T10:41:38.750Z,94301.94
2023-03-31T10:44:30.300Z,94300.69
2023-03-31T10:47:22.134Z,94302.84
2023-03-31T10:49:57.966Z,94298.84
2023-03-31T10:52:44.444Z,94296.75
2023-03-31T10:55:24.140Z,94276.66
2023-03-31T10:57:55.631Z,94261.78
2023-03-31T11:00:39.554Z,94259.44
2023-03-31T11:03:22.508Z,94277.69
2023-03-31T11:06:13.066Z,94249.78
2023-03-31T11:08:54.035Z,94277.97
2023-03-31T11:11:32.041Z,94266.97
2023-03-31T11:14:07.462Z,94293.13
2023-03-31T11:16:45.823Z,94342.19
2023-03-31T11:19:17.364Z,94402.22
2023-03-31T11:22:00.997Z,94394.22
2023-03-31T11:24:35.477Z,94371.84
2023-03-31T11:27:21.317Z,94371.97
2023-03-31T11:29:55.454Z,94333.63
2023-03-31T11:32:27.318Z,94324.09
2023-03-31T11:35:10.108Z,94329.72
2023-03-31T11:37:56.744Z,94326.22
2023-03-31T11:40:37.919Z,94312.72
2023-03-31T11:43:21.614Z,94295.75
2023-03-31T11:45:56.192Z,94284.06
2023-03-31T11:48:38.384Z,94283.47
2023-03-31T11:51:14.074Z,94266.34
2023-03-31T11:53:47.003Z,94253.38
2023-03-31T11:56:18.729Z,94247.00
2023-03-31T11:58:56.303Z,94248.69
2023-03-31T12:01:27.707Z,94220.22
2023-03-31T12:04:09.873Z,94189.03
2023-03-31T12:06:42.897Z,94185.38
2023-03-31T12:09:23.993Z,94184.16
2023-03-31T12:12:04.196Z,94177.22
2023-03-31T12:14:35.610Z,94179.50
2023-03-31T12:17:12.281Z,94186.53
2023-03-31T12:19:51.666Z,94185.56
2023-03-31T12:22:26.257Z,94192.03
2023-03-31T12:24:58.255Z,94195.25
2023-03-31T12:27:32.769Z,94186.25
2023-03-31T12:30:07.381Z,94192.03
2023-03-31T12:32:48.765Z,94198.72
2023-03-31T12:35:29.215Z,94200.63
2023-03-31T12:38:05.806Z,94197.47
2023-03-31T12:40:40.043Z,94191.97
2023-03-31T12:43:25.003Z,94197.75
2023-03-31T12:46:04.341Z,94230.41
2023-03-31T12:48:46.709Z,94203.16
2023-03-31T12:51:36.209Z,94202.84
2023-03-31T12:54:22.824Z,94190.19
2023-03-31T12:57:00.888Z,94206.56
2023-03-31T12:59:39.658Z,94209.97
2023-03-31T13:02:14.839Z,94206.69
2023-03-31T13:04:46.233Z,94187.50
2023-03-31T13:07:28.246Z,94227.91
2023-03-31T13:10:12.736Z,94211.78
2023-03-31T13:13:04.489Z,94239.66
2023-03-31T13:15:36.358Z,94269.53
2023-03-31T13:18:07.983Z,94214.00
2023-03-31T13:20:40.846Z,94140.88
2023-03-31T13:23:12.177Z,94113.47
2023-03-31T13:25:45.394Z,94121.69
2023-03-31T13:28:22.829Z,94129.47
2023-03-31T13:30:58.638Z,94145.41
2023-03-31T13:33:49.005Z,94140.56
2023-03-31T13:36:32.796Z,94135.09
2023-03-31T13:39:39.770Z,94138.69
2023-03-31T13:42:29.506Z,94141.13
2023-03-31T13:45:02.126Z,94160.25
2023-03-31T13:47:36.551Z,94174.97
2023-03-31T13:50:26.922Z,94173.13
2023-03-31T13:52:58.240Z,94176.78
2023-03-31T13:55:29.798Z,94184.81
2023-03-31T13:58:32.846Z,94177.59
2023-03-31T14:01:21.493Z,94162.97
2023-03-31T14:03:53.540Z,94169.75
2023-03-31T14:06:37.389Z,94174.22
2023-03-31T14:09:31.295Z,94186.84
2023-03-31T14:12:18.960Z,94195.53
2023-03-31T14:14:53.096Z,94205.50
2023-03-31T14:17:27.781Z,94203.00
2023-03-31T14:20:17.767Z,94206.91
2023-03-31T14:23:07.682Z,94221.19
2023-03-31T14:25:51.494Z,94209.97
2023-03-31T14:28:25.995Z,94217.31
2023-03-31T14:31:02.897Z,94217.69
2023-03-31T14:33:34.362Z,94228.25
2023-03-31T14:36:16.520Z,94270.53
2023-03-31T14:38:48.561Z,94298.09
2023-03-31T14:41:30.429Z,94271.44
2023-03-31T14:44:02.573Z,94266.72
2023-03-31T14:46:37.960Z,94264.88
2023-03-31T14:49:18.428Z,94278.66
2023-03-31T14:51:53.023Z,94270.69
2023-03-31T14:54:24.390Z,94227.81
2023-03-31T14:56:58.898Z,94236.16
2023-03-31T14:59:32.790Z,94222.88
2023-03-31T15:02:05.533Z,94217.91
2023-03-31T15:04:44.776Z,94197.66
2023-03-31T15:07:17.342Z,94178.66
2023-03-31T15:09:50.551Z,94181.00
2023-03-31T15:12:23.434Z,94165.41
2023-03-31T15:14:58.060Z,94162.59
2023-03-31T15:17:32.433Z,94166.16
2023-03-31T15:20:21.769Z,94173.13
2023-03-31T15:22:53.799Z,94170.69
2023-03-31T15:25:29.306Z,94159.47
2023-03-31T15:28:03.807Z,94167.63
2023-03-31T15:30:37.475Z,94180.00
2023-03-31T15:33:19.553Z,94188.09
2023-03-31T15:35:51.448Z,94178.09
2023-03-31T15:38:25.225Z,94180.97
2023-03-31T15:40:57.215Z,94190.16
2023-03-31T15:43:30.943Z,94183.44
2023-03-31T15:46:02.570Z,94185.69
2023-03-31T15:48:34.205Z,94188.16
2023-03-31T15:51:07.953Z,94191.94
2023-03-31T15:53:50.901Z,94197.97
2023-03-31T15:56:34.787Z,94182.47
2023-03-31T15:59:34.197Z,94185.50
2023-03-31T16:02:13.567Z,94193.19
2023-03-31T16:04:47.705Z,94177.63
2023-03-31T16:07:23.930Z,94174.44
2023-03-31T16:09:57.803Z,94173.81
2023-03-31T16:12:36.171Z,94169.41
2023-03-31T16:15:10.489Z,94168.97
2023-03-31T16:17:54.348Z,94163.75
2023-03-31T16:20:28.605Z,94157.25
2023-03-31T16:23:00.311Z,94164.94
2023-03-31T16:25:32.149Z,94165.47
2023-03-31T16:28:05.134Z,94161.19
2023-03-31T16:30:41.608Z,94152.59
2023-03-31T16:33:20.692Z,94164.50
2023-03-31T16:35:56.437Z,94158.28
2023-03-31T16:38:29.575Z,94166.38
2023-03-31T16:41:01.257Z,94178.72
2023-03-31T16:43:33.797Z,94184.44
2023-03-31T16:46:05.402Z,94185.28
2023-03-31T16:48:36.903Z,94222.38
2023-03-31T16:51:08.408Z,94283.53
2023-03-31T16:53:40.292Z,94286.31
2023-03-31T16:56:12.010Z,94275.63
2023-03-31T16:58:43.759Z,94294.16
2023-03-31T17:01:15.780Z,94294.09
2023-03-31T17:03:47.643Z,94279.25
2023-03-31T17:06:19.200Z,94283.31
2023-03-31T17:08:50.644Z,94260.59
2023-03-31T17:11:22.817Z,94260.94
2023-03-31T17:13:55.705Z,94255.66
2023-03-31T17:16:36.302Z,94248.47
2023-03-31T17:19:17.276Z,94263.25
2023-03-31T17:21:49.435Z,94260.28
2023-03-31T17:24:22.264Z,94270.88
2023-03-31T17:26:53.578Z,94273.53
2023-03-31T17:29:26.013Z,94274.69
2023-03-31T17:31:57.720Z,94252.69
2023-03-31T17:34:31.593Z,94261.44
2023-03-31T17:37:03.051Z,94259.94
2023-03-31T17:39:34.606Z,94258.00
2023-03-31T17:42:05.984Z,94260.63
2023-03-31T17:44:38.030Z,94256.09
2023-03-31T17:47:09.719Z,94262.56
2023-03-31T17:49:42.428Z,94266.38
2023-03-31T17:52:14.211Z,94249.66
2023-03-31T17:54:46.068Z,94266.31
2023-03-31T17:57:18.872Z,94268.97
2023-03-31T17:59:50.898Z,94265.16
2023-03-31T18:02:22.704Z,94264.00
2023-03-31T18:04:54.730Z,94273.91
2023-03-31T18:07:26.186Z,94279.91
2023-03-31T18:09:57.637Z,94278.44
2023-03-31T18:12:29.653Z,94290.56
2023-03-31T18:15:02.889Z,94299.28
2023-03-31T18:17:36.874Z,94297.75
2023-03-31T18:20:08.505Z,94291.72
2023-03-31T18:22:39.852Z,94293.97
2023-03-31T18:25:12.187Z,94296.28
2023-03-31T18:27:43.533Z,94296.19
2023-03-31T18:30:15.488Z,94295.81
2023-03-31T18:32:46.922Z,94302.66
2023-03-31T18:35:19.917Z,94298.09
2023-03-31T18:37:51.615Z,94315.91
2023-03-31T18:40:23.660Z,94314.38
2023-03-31T18:42:55.118Z,94310.56
2023-03-31T18:45:28.192Z,94315.91
2023-03-31T18:47:59.842Z,94317.41
2023-03-31T18:50:31.275Z,94324.25
2023-03-31T18:53:03.489Z,94336.41
2023-03-31T18:55:37.244Z,94330.69
2023-03-31T18:58:08.910Z,94335.22
2023-03-31T19:00:42.054Z,94330.31
2023-03-31T19:03:13.749Z,94327.31
2023-03-31T19:05:45.237Z,94329.19
2023-03-31T19:08:16.760Z,94334.88
2023-03-31T19:10:48.931Z,94334.13
2023-03-31T19:13:20.306Z,94338.63
2023-03-31T19:15:51.984Z,94336.41
2023-03-31T19:18:23.336Z,94340.53
2023-03-31T19:20:56.982Z,94326.56
2023-03-31T19:23:29.236Z,94337.94
2023-03-31T19:26:03.292Z,94340.59
2023-03-31T19:28:34.918Z,94336.03
2023-03-31T19:31:06.735Z,94344.34
2023-03-31T19:33:38.077Z,94339.81
2023-03-31T19:36:09.767Z,94335.28
2023-03-31T19:38:41.463Z,94340.25
2023-03-31T19:41:13.057Z,94344.03
2023-03-31T19:43:44.884Z,94333.06
2023-03-31T19:46:16.338Z,94330.03
2023-03-31T19:48:47.867Z,94325.50
2023-03-31T19:51:19.354Z,94308.06
2023-03-31T19:53:50.737Z,94311.09
2023-03-31T19:56:25.218Z,94305.78
2023-03-31T19:58:57.406Z,94305.41
2023-03-31T20:01:28.930Z,94290.63
2023-03-31T20:04:01.183Z,94302.41
2023-03-31T20:06:35.505Z,94301.66
2023-03-31T20:09:09.630Z,94283.44
2023-03-31T20:11:43.254Z,94288.75
2023-03-31T20:14:16.436Z,94289.53
2023-03-31T20:16:49.695Z,94289.53
2023-03-31T20:19:23.152Z,94289.91
2023-03-31T20:21:55.819Z,94295.22
2023-03-31T20:24:27.842Z,94283.88
2023-03-31T20:26:59.190Z,94283.88
2023-03-31T20:29:30.546Z,94286.50
2023-03-31T20:32:02.647Z,94285.78
2023-03-31T20:34:34.161Z,94276.28
2023-03-31T20:37:05.507Z,94269.44
2023-03-31T20:39:37.578Z,94282.75
2023-03-31T20:42:08.955Z,94271.75
2023-03-31T20:44:41.157Z,94278.56
2023-03-31T20:47:14.396Z,94277.44
2023-03-31T20:49:46.574Z,94276.28
2023-03-31T20:52:17.931Z,94278.22
2023-03-31T20:54:49.320Z,94275.91
2023-03-31T20:57:21.049Z,94278.97
2023-03-31T20:59:52.497Z,94288.47
2023-03-31T21:02:24.016Z,94276.31
2023-03-31T21:04:55.457Z,94297.94
2023-03-31T21:07:26.867Z,94299.06
2023-03-31T21:09:59.736Z,94299.44
2023-03-31T21:12:31.162Z,94311.63
2023-03-31T21:15:02.547Z,94313.47
2023-03-31T21:17:34.215Z,94304.00
2023-03-31T21:20:05.974Z,94305.16
2023-03-31T21:22:37.440Z,94310.06
2023-03-31T21:25:09.023Z,94316.13
2023-03-31T21:27:40.393Z,94299.09
2023-03-31T21:30:12.152Z,94304.38
2023-03-31T21:32:43.738Z,94299.84
2023-03-31T21:35:15.335Z,94309.31
2023-03-31T21:37:46.742Z,94307.38
2023-03-31T21:40:18.242Z,94308.53
2023-03-31T21:42:49.661Z,94303.59
2023-03-31T21:45:21.855Z,94307.00
2023-03-31T21:47:53.663Z,94316.13
2023-03-31T21:50:25.593Z,94320.25
2023-03-31T21:52:57.379Z,94322.94
2023-03-31T21:55:29.586Z,94313.81
2023-03-31T21:58:01.629Z,94311.53
2023-03-31T22:00:33.006Z,94322.16
2023-03-31T22:03:22.380Z,94308.13
2023-03-31T22:05:59.403Z,94321.00
2023-03-31T22:08:31.715Z,94319.13
2023-03-31T22:11:04.091Z,94330.88
2023-03-31T22:13:36.092Z,94329.34
2023-03-31T22:16:18.166Z,94333.13
2023-03-31T22:18:50.699Z,94323.28
2023-03-31T22:21:26.047Z,94327.06
2023-03-31T22:23:59.588Z,94338.38
2023-03-31T22:26:31.493Z,94332.34
2023-03-31T22:29:03.240Z,94339.19
2023-03-31T22:31:34.694Z,94342.56
2023-03-31T22:34:06.508Z,94344.50
2023-03-31T22:36:37.912Z,94352.81
2023-03-31T22:39:10.566Z,94344.50
2023-03-31T22:41:42.945Z,94344.88
2023-03-31T22:44:14.810Z,94350.56
2023-03-31T22:46:49.324Z,94343.72
2023-03-31T22:49:20.984Z,94335.81
2023-03-31T22:51:56.077Z,94344.88
2023-03-31T22:54:27.680Z,94358.84
2023-03-31T22:56:59.063Z,94352.75
2023-03-31T22:59:31.192Z,94356.94
2023-03-31T23:02:03.276Z,94355.81
2023-03-31T23:04:34.802Z,94356.91
2023-03-31T23:07:06.444Z,94356.50
2023-03-31T23:09:37.839Z,94333.41
2023-03-31T23:12:09.155Z,94361.03
2023-03-31T23:14:40.821Z,94337.50
2023-03-31T23:17:12.263Z,94322.00
2023-03-31T23:19:45.637Z,94329.19
2023-03-31T23:22:17.041Z,94329.16
2023-03-31T23:24:48.786Z,94321.97
2023-03-31T23:27:20.309Z,94318.91
2023-03-31T23:29:51.718Z,94337.13
2023-03-31T23:32:23.070Z,94324.25
2023-03-31T23:34:54.563Z,94317.75
2023-03-31T23:37:26.374Z,94322.66
2023-03-31T23:39:57.962Z,94324.53
2023-03-31T23:42:29.472Z,94332.47
2023-03-31T23:45:01.175Z,94343.78
2023-03-31T23:47:32.689Z,94335.78
2023-03-31T23:50:06.127Z,94327.81
2023-03-31T23:52:37.586Z,94327.81
2023-03-31T23:55:09.324Z,94324.34
2023-03-31T23:57:41.346Z,94328.16
